Terminal Aerodrome Forecast
Issued by NWS Sioux Falls, SD

Home | Current Version | Previous Version | Graphics & Text | Print | Product List | Glossary Off
Versions: 1 2 3 4 5 6 7 8 9 10 11 12 13 14 15 16 17 18 19 20

000
FTUS43 KFSD 210521
TAFSUX
TAF
KSUX 210521Z 2106/2206 12007KT P6SM VCTS BKN070CB
     FM210700 09006KT P6SM -SHRA VCTS BKN060CB
     FM211000 09005KT 6SM BR BKN040
     FM211400 15006KT P6SM SCT080
     FM211900 19009KT P6SM VCTS BKN080CB
     FM212200 36007KT P6SM SHRA VCTS BKN060CB
     FM220300 35005KT P6SM BKN060=

USA.gov is the U.S. government's official web portal to all federal, state and local government web resources and services.